Station info - map view · info · telemetry · weather · raw · status · beacons · messages · bulletins · browse · moving · my account
Callsign, ship name or locator: Clear       
It is possible to search using wildcards (*?) after a prefix. Example: OH*
APRS station N44PH - show graphs
Map loading...
Comment: KJ4RZN-9 Vans RV6
Mic-E message: En route
Location: 27°38.89' N 80°23.96' W - locator EL97TP25BN - show map - static map
0.7 miles North bearing 349° from Vero Beach, Indian River County, Florida, United States [?]
2.0 miles South bearing 162° from Gifford, Indian River County, Florida, United States
24.6 miles North bearing 353° from Port Saint Lucie, Saint Lucie County, Florida, United States
85.7 miles Southeast bearing 136° from Orlando, Orange County, Florida, United States
Last position: 2017-12-10 09:14:20 EST (6d 17h59m ago)
2017-12-10 09:14:20 EST local time at Vero Beach, United States [?]
Altitude: 279 ft
Course: 303°
Speed: 89 MPH
Last path: N44PH>RW3X8Y via K4OKE-3*,WIDE2-1,qAR,NI4CE-10 (good)
Positions stored: 25644
Stations near current position of N44PH - show more
callsign distance last heard - EST      callsign distance last heard - EST
K4CPJ-90.6 miles 196°2017-12-09 08:56:08 N4WRW1.3 miles 5°2017-12-16 09:32:11
W4PHJ1.4 miles 181°2017-12-12 20:36:03 KM4RLE B2.2 miles 210°2017-12-17 03:12:02
KM4RLE-B2.2 miles 210°2017-12-17 03:12:12 EW37392.3 miles 257°2017-12-17 03:07:33
K4VRB2.5 miles 75°2017-12-12 20:54:35 DW72202.7 miles 170°2017-12-17 03:09:30
KK4GGJ2.8 miles 349°2017-12-16 08:57:24 K4PAG3.0 miles 258°2017-11-24 13:27:16
K4VRB B3.1 miles 41°2017-12-17 02:59:10 K4VRB-B3.1 miles 41°2017-12-17 02:59:20
W4OT-33.2 miles 173°2017-12-17 03:01:05 WA4TCD-C3.3 miles 173°2017-12-17 03:00:34
WA4TCD C3.3 miles 173°2017-12-17 03:00:48 WA4TCD-B3.3 miles 173°2017-12-17 03:00:33
WA4TCD B3.3 miles 173°2017-12-17 03:00:47 AB4AZ3.5 miles 197°2017-12-05 20:48:59
KM4WVZ-93.9 miles 275°2017-12-15 08:17:16 WA4ASJ-94.8 miles 208°2017-12-16 20:26:14
Stations which heard N44PH directly on radio –
callsign pkts first heard - EST last heard longest (tx => rx) longest at - EST
K4OKE-3 10 2017-12-03 08:00:17 2017-12-10 09:14:20 EL97TP > EL97OF 35.7 miles 217° 2017-12-10 09:14:20
NI4CE-10 11 2017-12-10 07:40:26 2017-12-10 09:11:25 EL97SN > EL87VJ 108.3 miles 264° 2017-12-10 09:11:25
W4HEM-14 2 2017-12-10 07:50:12 2017-12-10 07:51:10 EL97NF > EL97HH 32.1 miles 277° 2017-12-10 07:50:12
WC4PEM-10 33 2017-12-03 07:46:06 2017-12-10 09:10:28 EL97TP > EL97CV 89.0 miles 280° 2017-12-03 09:25:01
WC4PEM-14 12 2017-12-03 07:58:03 2017-12-10 09:13:57 EL97SN > EL98EG 85.0 miles 304° 2017-12-10 09:13:57
WC4PEM-12 3 2017-12-03 07:59:52 2017-12-10 09:02:47 EL97NG > EL97FS 55.0 miles 308° 2017-12-10 09:02:47
WC4PEM-11 2 2017-12-03 09:14:41 2017-12-10 09:07:31 EL97PK > EL97BR 77.8 miles 287° 2017-12-03 09:14:41
WC4PEM-15 21 2017-12-03 07:45:34 2017-12-10 09:06:20 EL97TQ > EL98EA 78.0 miles 288° 2017-12-03 09:24:40
K4PKT-3 1 2017-12-03 07:45:43 2017-12-03 07:45:43 EL97SQ > EL96VT 61.4 miles 167° 2017-12-03 07:45:43
WC4PEM-13 6 2017-12-03 07:45:14 2017-12-03 09:21:17 EL97SQ > EL97IS 55.9 miles 278° 2017-12-03 07:45:14
K4PKT-1 3 2017-12-03 07:57:04 2017-12-10 07:49:32 EL97NG > EL96NR 37.9 miles 187° 2017-12-03 07:57:04
W4MCO-10 4 2017-12-03 09:13:15 2017-12-10 09:13:19 EL97PI > EL98IO 92.8 miles 338° 2017-12-03 09:13:15
K4OZS-10 2 2017-12-03 09:20:04 2017-12-03 09:23:36 EL97SQ > EL89XC 141.7 miles 315° 2017-12-03 09:23:36
KJ4ERJ-1 1 2017-12-03 09:13:09 2017-12-03 09:13:09 EL97PJ > EL97QX 41.4 miles 3° 2017-12-03 09:13:09
N9JY-1 5 2017-12-03 07:45:06 2017-12-10 09:09:26 EL97OH > EL98OL 80.6 miles 359° 2017-12-03 09:09:57
N4ZIQ-2 2 2017-12-03 09:14:04 2017-12-10 07:45:48 EL97PJ > EL98KG 66.0 miles 335° 2017-12-03 09:14:04
W4LCO-1 1 2017-12-03 09:14:56 2017-12-03 09:14:56 EL97QK > EL96CO 91.5 miles 231° 2017-12-03 09:14:56
W4RPT-1 1 2017-12-03 09:15:36 2017-12-03 09:15:36 EL97QK > EL88VM 118.3 miles 308° 2017-12-03 09:15:36
K4PKT-2 7 2017-12-03 07:44:36 2017-12-10 09:13:48 EL97TQ > EL97TC 37.8 miles 178° 2017-12-03 07:44:36
KC9EQM 19 2017-12-03 07:43:21 2017-12-10 09:13:25 EL97OH > EL97TG 30.4 miles 91° 2017-12-10 09:01:28

Only position packets which were originated by the station are shown here. The range statistics show some extra long hops, because some digipeaters do not correctly add themselves to the digipeater path. Please check the raw packets.
About this site
This page shows real-time information collected from the Automatic Position Reporting System Internet network (APRS-IS). APRS is used by amateur (ham) radio operators to transmit real-time position information, weather data, telemetry and messages over the radio. A vehicle equipped with a GPS receiver, a VHF transmitter or HF transceiver and a small computer device called a tracker transmits it's location, speed and course in a small data packet, which is then received by a nearby iGate receiving site which forwards the packet on the Internet. Systems connected to the Internet can send information on the APRS-IS without a radio transmitter, or collect and display information transmitted anywhere in the world.
FAQ · Blog · Discussion group · Linking to aprs.fi · AIS sites · Service status · Database statistics · Advertising on aprs.fi · Technical details · API · Change log · Planned changes · Credits and thanks · Terms Of Service · iPhone/iPad APRS